createdAt,value
2022-10-13T00:00:06.291Z,82.65
2022-10-13T00:02:32.829Z,82.65
2022-10-13T00:04:59.299Z,83.22
2022-10-13T00:07:25.741Z,82.56
2022-10-13T00:09:52.270Z,82.11
2022-10-13T00:12:19.062Z,82.35
2022-10-13T00:14:45.845Z,81.57
2022-10-13T00:17:12.340Z,81.93
2022-10-13T00:19:38.843Z,82.07
2022-10-13T00:22:05.380Z,81.93
2022-10-13T00:24:31.959Z,80.78
2022-10-13T00:26:58.435Z,80.07
2022-10-13T00:29:24.944Z,79.82
2022-10-13T00:31:51.404Z,79.83
2022-10-13T00:34:17.883Z,80.30
2022-10-13T00:36:44.386Z,79.43
2022-10-13T00:39:10.852Z,79.13
2022-10-13T00:41:37.339Z,79.39
2022-10-13T00:44:05.863Z,79.80
2022-10-13T00:46:34.523Z,80.41
2022-10-13T00:49:05.726Z,80.96
2022-10-13T00:51:34.267Z,80.43
2022-10-13T00:54:01.958Z,80.88
2022-10-13T00:56:29.367Z,80.17
2022-10-13T00:58:56.328Z,79.88
2022-10-13T01:01:22.901Z,79.71
2022-10-13T01:03:49.405Z,81.10
2022-10-13T01:06:19.783Z,82.88
2022-10-13T01:08:49.112Z,82.86
2022-10-13T01:11:18.427Z,83.07
2022-10-13T01:14:00.315Z,82.48
2022-10-13T01:16:40.475Z,82.54
2022-10-13T01:19:25.306Z,84.05
2022-10-13T01:22:07.960Z,84.92
2022-10-13T01:24:45.321Z,84.32
2022-10-13T01:27:19.911Z,84.27
2022-10-13T01:29:58.581Z,83.29
2022-10-13T01:32:37.084Z,83.25
2022-10-13T01:35:13.065Z,82.98
2022-10-13T01:37:57.984Z,82.30
2022-10-13T01:40:28.996Z,82.06
2022-10-13T01:43:01.478Z,81.15
2022-10-13T01:45:55.714Z,80.79
2022-10-13T01:48:22.241Z,80.23
2022-10-13T01:50:48.860Z,79.65
2022-10-13T01:53:16.020Z,79.02
2022-10-13T01:55:53.689Z,79.69
2022-10-13T01:58:20.920Z,80.06
2022-10-13T02:01:01.325Z,79.84
2022-10-13T02:03:39.224Z,79.70
2022-10-13T02:06:22.509Z,79.47
2022-10-13T02:08:56.656Z,79.80
2022-10-13T02:11:24.103Z,80.15
2022-10-13T02:14:05.700Z,79.71
2022-10-13T02:16:36.076Z,79.82
2022-10-13T02:19:05.155Z,79.25
2022-10-13T02:21:32.345Z,80.00
2022-10-13T02:23:59.100Z,81.04
2022-10-13T02:26:25.948Z,80.89
2022-10-13T02:28:52.547Z,81.39
2022-10-13T02:31:19.122Z,80.72
2022-10-13T02:33:45.586Z,81.15
2022-10-13T02:36:12.080Z,80.77
2022-10-13T02:38:38.562Z,81.26
2022-10-13T02:41:05.119Z,82.23
2022-10-13T02:43:31.626Z,82.29
2022-10-13T02:45:58.081Z,83.62
2022-10-13T02:48:24.539Z,83.17
2022-10-13T02:50:51.186Z,82.73
2022-10-13T02:53:17.666Z,83.09
2022-10-13T02:55:44.137Z,82.32
2022-10-13T02:58:10.596Z,82.69
2022-10-13T03:00:37.351Z,82.59
2022-10-13T03:03:04.101Z,82.42
2022-10-13T03:05:30.587Z,83.02
2022-10-13T03:07:57.094Z,83.92
2022-10-13T03:10:23.606Z,83.34
2022-10-13T03:12:50.164Z,83.26
2022-10-13T03:15:16.689Z,82.82
2022-10-13T03:17:43.212Z,83.24
2022-10-13T03:20:10.206Z,83.35
2022-10-13T03:22:36.685Z,83.12
2022-10-13T03:25:03.470Z,82.78
2022-10-13T03:27:30.484Z,82.68
2022-10-13T03:29:57.247Z,82.35
2022-10-13T03:32:23.748Z,83.64
2022-10-13T03:34:50.508Z,83.96
2022-10-13T03:37:17.199Z,83.39
2022-10-13T03:39:43.731Z,83.13
2022-10-13T03:42:10.387Z,82.74
2022-10-13T03:44:36.900Z,82.87
2022-10-13T03:47:03.381Z,82.81
2022-10-13T03:49:29.886Z,82.52
2022-10-13T03:51:56.605Z,82.72
2022-10-13T03:54:23.064Z,82.21
2022-10-13T03:56:49.576Z,81.43
2022-10-13T03:59:16.034Z,81.49
2022-10-13T04:01:42.623Z,80.86
2022-10-13T04:04:11.501Z,80.97
2022-10-13T04:06:38.102Z,80.75
2022-10-13T04:09:04.825Z,80.25
2022-10-13T04:11:31.675Z,80.30
2022-10-13T04:13:58.598Z,79.77
2022-10-13T04:16:27.790Z,79.73
2022-10-13T04:18:58.240Z,79.86
2022-10-13T04:21:24.824Z,79.31
2022-10-13T04:23:51.566Z,79.72
2022-10-13T04:26:20.681Z,79.73
2022-10-13T04:28:48.767Z,79.41
2022-10-13T04:31:15.449Z,80.22
2022-10-13T04:33:42.033Z,81.29
2022-10-13T04:36:10.807Z,81.86
2022-10-13T04:38:37.299Z,81.23
2022-10-13T04:41:05.019Z,80.82
2022-10-13T04:43:32.379Z,81.54
2022-10-13T04:46:02.832Z,82.32
2022-10-13T04:48:29.317Z,81.90
2022-10-13T04:51:03.856Z,81.73
2022-10-13T04:53:31.418Z,81.32
2022-10-13T04:56:01.685Z,81.46
2022-10-13T04:58:28.303Z,80.98
2022-10-13T05:00:54.983Z,81.15
2022-10-13T05:03:21.701Z,81.91
2022-10-13T05:05:48.191Z,82.60
2022-10-13T05:08:14.757Z,83.12
2022-10-13T05:10:41.246Z,83.96
2022-10-13T05:13:07.825Z,84.57
2022-10-13T05:15:34.410Z,83.96
2022-10-13T05:18:00.897Z,83.40
2022-10-13T05:20:27.417Z,83.40
2022-10-13T05:22:53.927Z,82.88
2022-10-13T05:25:20.391Z,84.64
2022-10-13T05:27:46.938Z,84.64
2022-10-13T05:30:13.645Z,85.00
2022-10-13T05:32:40.164Z,84.12
2022-10-13T05:35:07.006Z,84.61
2022-10-13T05:37:33.477Z,84.08
2022-10-13T05:40:00.189Z,84.46
2022-10-13T05:42:28.525Z,84.80
2022-10-13T05:44:55.010Z,84.92
2022-10-13T05:47:21.744Z,84.68
2022-10-13T05:49:48.249Z,84.06
2022-10-13T05:52:14.708Z,83.17
2022-10-13T05:54:48.379Z,83.34
2022-10-13T05:57:30.902Z,82.87
2022-10-13T06:00:07.130Z,82.90
2022-10-13T06:02:38.787Z,82.43
2022-10-13T06:05:12.507Z,82.37
2022-10-13T06:07:42.618Z,81.93
2022-10-13T06:10:10.006Z,81.78
2022-10-13T06:12:36.918Z,81.88
2022-10-13T06:15:04.460Z,82.11
2022-10-13T06:17:31.222Z,81.86
2022-10-13T06:19:57.949Z,81.76
2022-10-13T06:22:24.467Z,82.66
2022-10-13T06:24:51.236Z,82.35
2022-10-13T06:27:18.026Z,82.23
2022-10-13T06:29:44.560Z,81.93
2022-10-13T06:32:11.606Z,81.71
2022-10-13T06:34:38.189Z,81.20
2022-10-13T06:37:04.705Z,81.08
2022-10-13T06:39:31.242Z,80.02
2022-10-13T06:41:57.684Z,79.59
2022-10-13T06:44:24.277Z,78.52
2022-10-13T06:46:51.024Z,77.34
2022-10-13T06:49:17.674Z,77.37
2022-10-13T06:51:44.490Z,77.41
2022-10-13T06:54:10.982Z,75.43
2022-10-13T06:56:37.505Z,76.18
2022-10-13T06:59:05.256Z,76.16
2022-10-13T07:01:31.866Z,76.78
2022-10-13T07:03:59.977Z,75.59
2022-10-13T07:06:26.444Z,75.25
2022-10-13T07:08:53.344Z,74.75
2022-10-13T07:11:20.066Z,72.59
2022-10-13T07:13:47.246Z,72.04
2022-10-13T07:16:14.651Z,71.03
2022-10-13T07:18:42.225Z,70.38
2022-10-13T07:21:09.588Z,70.66
2022-10-13T07:23:36.238Z,70.38
2022-10-13T07:26:07.566Z,70.52
2022-10-13T07:28:34.175Z,69.46
2022-10-13T07:31:00.860Z,69.08
2022-10-13T07:33:27.384Z,68.43
2022-10-13T07:35:54.425Z,68.17
2022-10-13T07:38:21.057Z,68.67
2022-10-13T07:40:47.597Z,68.13
2022-10-13T07:43:14.189Z,66.44
2022-10-13T07:45:40.867Z,65.79
2022-10-13T07:48:07.515Z,65.89
2022-10-13T07:50:34.077Z,66.62
2022-10-13T07:53:00.597Z,65.38
2022-10-13T07:55:28.143Z,64.70
2022-10-13T07:57:55.785Z,64.41
2022-10-13T08:00:22.334Z,64.28
2022-10-13T08:02:51.966Z,64.30
2022-10-13T08:05:20.774Z,64.10
2022-10-13T08:07:47.375Z,63.73
2022-10-13T08:10:13.989Z,63.30
2022-10-13T08:12:40.542Z,63.26
2022-10-13T08:15:08.548Z,61.38
2022-10-13T08:17:34.993Z,60.81
2022-10-13T08:20:02.141Z,60.92
2022-10-13T08:22:28.768Z,60.42
2022-10-13T08:24:55.350Z,60.89
2022-10-13T08:27:26.666Z,60.60
2022-10-13T08:30:04.890Z,61.43
2022-10-13T08:32:31.646Z,62.15
2022-10-13T08:34:58.187Z,62.61
2022-10-13T08:37:24.666Z,62.83
2022-10-13T08:39:51.232Z,62.35
2022-10-13T08:42:20.630Z,62.80
2022-10-13T08:45:35.846Z,61.01
2022-10-13T08:47:48.644Z,60.82
2022-10-13T08:50:18.603Z,60.94
2022-10-13T08:52:51.120Z,60.19
2022-10-13T08:55:23.933Z,59.21
2022-10-13T08:57:50.691Z,60.36
2022-10-13T09:00:17.825Z,61.92
2022-10-13T09:02:44.913Z,61.34
2022-10-13T09:05:21.960Z,60.46
2022-10-13T09:07:49.245Z,60.03
2022-10-13T09:10:16.174Z,58.90
2022-10-13T09:12:42.695Z,58.22
2022-10-13T09:15:11.664Z,58.23
2022-10-13T09:17:39.917Z,57.70
2022-10-13T09:20:08.198Z,57.72
2022-10-13T09:22:39.694Z,56.82
2022-10-13T09:25:21.389Z,55.12
2022-10-13T09:27:52.634Z,55.45
2022-10-13T09:30:41.238Z,56.06
2022-10-13T09:33:07.626Z,57.59
2022-10-13T09:35:35.473Z,56.80
2022-10-13T09:38:03.427Z,55.53
2022-10-13T09:40:30.251Z,55.84
2022-10-13T09:42:58.363Z,56.56
2022-10-13T09:45:26.428Z,56.01
2022-10-13T09:48:18.313Z,57.18
2022-10-13T09:50:49.758Z,57.76
2022-10-13T09:53:28.247Z,56.81
2022-10-13T09:56:47.382Z,56.71
2022-10-13T09:59:28.740Z,57.39
2022-10-13T10:01:56.184Z,59.32
2022-10-13T10:04:26.391Z,59.91
2022-10-13T10:06:52.917Z,59.85
2022-10-13T10:09:36.019Z,59.89
2022-10-13T10:12:04.768Z,60.87
2022-10-13T10:14:38.775Z,60.15
2022-10-13T10:17:20.551Z,62.11
2022-10-13T10:20:01.806Z,61.75
2022-10-13T10:22:36.072Z,61.65
2022-10-13T10:25:24.283Z,62.23
2022-10-13T10:28:17.043Z,62.55
2022-10-13T10:30:50.477Z,63.19
2022-10-13T10:33:23.443Z,61.16
2022-10-13T10:36:04.116Z,61.60
2022-10-13T10:38:43.247Z,59.76
2022-10-13T10:41:44.659Z,59.00
2022-10-13T10:44:20.468Z,60.20
2022-10-13T10:46:49.826Z,57.00
2022-10-13T10:49:27.176Z,57.53
2022-10-13T10:51:54.012Z,56.64
2022-10-13T10:54:32.005Z,56.75
2022-10-13T10:57:03.437Z,56.02
2022-10-13T11:00:03.983Z,55.97
2022-10-13T11:02:43.227Z,56.04
2022-10-13T11:05:10.208Z,57.37
2022-10-13T11:07:39.721Z,56.91
2022-10-13T11:10:15.457Z,57.29
2022-10-13T11:12:48.284Z,56.28
2022-10-13T11:15:21.657Z,55.73
2022-10-13T11:17:48.238Z,55.67
2022-10-13T11:20:17.419Z,55.93
2022-10-13T11:23:04.260Z,55.85
2022-10-13T11:25:35.572Z,56.04
2022-10-13T11:28:22.064Z,55.81
2022-10-13T11:31:14.646Z,55.33
2022-10-13T11:33:41.023Z,55.39
2022-10-13T11:36:41.888Z,55.92
2022-10-13T11:39:26.684Z,56.82
2022-10-13T11:42:11.771Z,56.01
2022-10-13T11:45:00.080Z,56.48
2022-10-13T11:48:04.012Z,56.75
2022-10-13T11:50:43.184Z,56.72
2022-10-13T11:53:33.009Z,56.66
2022-10-13T11:56:00.510Z,57.02
2022-10-13T11:58:28.350Z,56.99
2022-10-13T12:01:05.926Z,56.42
2022-10-13T12:03:33.725Z,57.66
2022-10-13T12:06:28.209Z,58.05
2022-10-13T12:08:54.680Z,56.37
2022-10-13T12:11:26.930Z,57.20
2022-10-13T12:13:54.269Z,56.03
2022-10-13T12:16:21.153Z,55.70
2022-10-13T12:18:48.101Z,55.97
2022-10-13T12:21:22.506Z,56.04
2022-10-13T12:23:50.972Z,56.73
2022-10-13T12:26:20.603Z,55.45
2022-10-13T12:28:52.514Z,57.84
2022-10-13T12:31:24.286Z,57.14
2022-10-13T12:34:04.432Z,58.31
2022-10-13T12:36:32.980Z,58.37
2022-10-13T12:39:03.331Z,59.08
2022-10-13T12:41:34.442Z,59.28
2022-10-13T12:44:04.036Z,59.51
2022-10-13T12:46:47.931Z,57.92
2022-10-13T12:49:15.485Z,57.70
2022-10-13T12:51:43.879Z,56.88
2022-10-13T12:54:19.073Z,56.43
2022-10-13T12:56:45.624Z,56.91
2022-10-13T12:59:19.455Z,56.98
2022-10-13T13:01:52.855Z,57.36
2022-10-13T13:04:22.326Z,56.39
2022-10-13T13:07:03.513Z,56.21
2022-10-13T13:09:30.700Z,56.86
2022-10-13T13:12:26.842Z,57.63
2022-10-13T13:14:54.016Z,58.38
2022-10-13T13:20:21.715Z,59.33
2022-10-13T13:22:48.409Z,60.19
2022-10-13T13:25:15.414Z,60.51
2022-10-13T13:27:41.938Z,59.69
2022-10-13T13:30:13.090Z,59.22
2022-10-13T13:32:39.613Z,60.55
2022-10-13T13:35:07.183Z,59.79
2022-10-13T13:37:41.496Z,58.70
2022-10-13T13:40:14.759Z,58.03
2022-10-13T13:42:41.247Z,59.13
2022-10-13T13:45:12.024Z,60.18
2022-10-13T13:47:38.532Z,59.18
2022-10-13T13:50:14.247Z,58.67
2022-10-13T13:52:41.097Z,59.06
2022-10-13T13:55:08.092Z,59.46
2022-10-13T13:57:35.010Z,58.11
2022-10-13T14:00:01.565Z,58.79
2022-10-13T14:02:28.035Z,58.30
2022-10-13T14:04:54.734Z,58.55
2022-10-13T14:07:21.507Z,59.45
2022-10-13T14:09:48.240Z,58.58
2022-10-13T14:12:14.723Z,58.30
2022-10-13T14:14:41.357Z,59.63
2022-10-13T14:17:11.340Z,59.28
2022-10-13T14:19:38.006Z,58.77
2022-10-13T14:22:09.208Z,60.23
2022-10-13T14:24:36.069Z,60.88
2022-10-13T14:27:02.746Z,60.38
2022-10-13T14:29:29.419Z,61.29
2022-10-13T14:31:55.934Z,61.53
2022-10-13T14:34:22.507Z,62.31
2022-10-13T14:36:49.100Z,62.33
2022-10-13T14:39:15.788Z,61.81
2022-10-13T14:41:42.401Z,63.03
2022-10-13T14:44:13.296Z,61.75
2022-10-13T14:46:40.928Z,61.28
2022-10-13T14:49:07.501Z,60.75
2022-10-13T14:51:34.039Z,61.56
2022-10-13T14:54:00.675Z,62.24
2022-10-13T14:56:29.288Z,61.32
2022-10-13T14:59:01.291Z,61.54
2022-10-13T15:01:28.249Z,62.04
2022-10-13T15:03:55.225Z,62.63
2022-10-13T15:06:23.737Z,63.98
2022-10-13T15:08:50.717Z,64.14
2022-10-13T15:11:19.207Z,64.43
2022-10-13T15:13:45.717Z,63.55
2022-10-13T15:16:21.070Z,63.70
2022-10-13T15:18:48.266Z,63.42
2022-10-13T15:21:15.392Z,62.93
2022-10-13T15:23:42.445Z,62.76
2022-10-13T15:26:10.542Z,63.22
2022-10-13T15:28:39.551Z,63.30
2022-10-13T15:31:06.815Z,63.56
2022-10-13T15:33:33.685Z,63.94
2022-10-13T15:36:00.613Z,63.35
2022-10-13T15:38:27.429Z,63.55
2022-10-13T15:40:59.090Z,64.11
2022-10-13T15:43:25.558Z,63.64
2022-10-13T15:45:57.851Z,64.46
2022-10-13T15:48:27.888Z,65.14
2022-10-13T15:50:54.503Z,65.77
2022-10-13T15:53:21.051Z,66.37
2022-10-13T15:55:49.623Z,66.71
2022-10-13T15:58:16.636Z,66.18
2022-10-13T16:00:44.162Z,67.86
2022-10-13T16:03:18.111Z,67.64
2022-10-13T16:05:45.551Z,67.18
2022-10-13T16:08:12.756Z,67.03
2022-10-13T16:10:40.450Z,68.29
2022-10-13T16:13:07.568Z,69.59
2022-10-13T16:15:34.070Z,68.98
2022-10-13T16:18:00.594Z,69.43
2022-10-13T16:20:27.208Z,70.54
2022-10-13T16:22:54.073Z,69.66
2022-10-13T16:25:20.609Z,69.55
2022-10-13T16:27:47.101Z,70.92
2022-10-13T16:30:13.643Z,70.87
2022-10-13T16:32:40.339Z,71.40
2022-10-13T16:35:07.342Z,70.27
2022-10-13T16:37:33.933Z,70.96
2022-10-13T16:40:00.408Z,71.31
2022-10-13T16:42:26.962Z,71.62
2022-10-13T16:44:53.676Z,71.26
2022-10-13T16:47:20.477Z,70.84
2022-10-13T16:49:47.216Z,71.25
2022-10-13T16:52:13.745Z,72.44
2022-10-13T16:54:40.510Z,72.93
2022-10-13T16:57:07.008Z,72.67
2022-10-13T16:59:33.508Z,73.84
2022-10-13T17:01:59.964Z,73.63
2022-10-13T17:04:31.085Z,73.57
2022-10-13T17:06:59.426Z,73.39
2022-10-13T17:09:26.196Z,74.03
2022-10-13T17:11:52.807Z,74.91
2022-10-13T17:14:22.169Z,74.31
2022-10-13T17:16:48.742Z,74.29
2022-10-13T17:19:15.224Z,76.80
2022-10-13T17:21:43.063Z,76.53
2022-10-13T17:24:09.577Z,77.76
2022-10-13T17:26:36.144Z,78.85
2022-10-13T17:29:02.693Z,77.86
2022-10-13T17:31:29.240Z,76.94
2022-10-13T17:34:05.389Z,76.77
2022-10-13T17:36:32.171Z,77.57
2022-10-13T17:39:04.569Z,77.66
2022-10-13T17:41:31.191Z,77.48
2022-10-13T17:43:57.761Z,77.53
2022-10-13T17:46:38.742Z,78.24
2022-10-13T17:49:08.084Z,77.98
2022-10-13T17:51:34.828Z,78.15
2022-10-13T17:54:01.500Z,78.44
2022-10-13T17:56:28.587Z,78.79
2022-10-13T17:58:55.175Z,78.44
2022-10-13T18:01:26.869Z,78.55
2022-10-13T18:03:59.394Z,78.00
2022-10-13T18:06:33.829Z,78.46
2022-10-13T18:09:09.610Z,78.22
2022-10-13T18:11:36.401Z,77.61
2022-10-13T18:14:03.916Z,77.61
2022-10-13T18:16:30.531Z,77.37
2022-10-13T18:18:57.002Z,77.14
2022-10-13T18:21:24.126Z,77.30
2022-10-13T18:23:50.746Z,76.76
2022-10-13T18:26:19.227Z,76.79
2022-10-13T18:28:46.966Z,77.11
2022-10-13T18:31:15.888Z,77.23
2022-10-13T18:33:42.749Z,77.58
2022-10-13T18:36:15.791Z,77.05
2022-10-13T18:38:43.004Z,76.64
2022-10-13T18:41:09.532Z,76.21
2022-10-13T18:43:36.182Z,76.02
2022-10-13T18:46:03.214Z,75.58
2022-10-13T18:48:33.114Z,75.63
2022-10-13T18:51:17.011Z,75.40
2022-10-13T18:53:45.946Z,75.32
2022-10-13T18:56:17.442Z,75.70
2022-10-13T18:58:44.040Z,75.67
2022-10-13T19:01:12.535Z,76.13
2022-10-13T19:03:40.264Z,76.01
2022-10-13T19:06:13.973Z,76.85
2022-10-13T19:08:40.615Z,76.72
2022-10-13T19:11:13.573Z,77.97
2022-10-13T19:13:40.519Z,78.53
2022-10-13T19:16:07.365Z,78.55
2022-10-13T19:18:34.318Z,78.33
2022-10-13T19:21:01.006Z,77.70
2022-10-13T19:23:27.739Z,77.52
2022-10-13T19:25:54.253Z,78.94
2022-10-13T19:28:21.149Z,78.79
2022-10-13T19:30:47.889Z,78.49
2022-10-13T19:33:15.261Z,77.60
2022-10-13T19:35:43.863Z,77.38
2022-10-13T19:38:10.936Z,77.59
2022-10-13T19:40:42.429Z,78.07
2022-10-13T19:43:09.771Z,77.75
2022-10-13T19:45:36.548Z,77.06
2022-10-13T19:48:05.576Z,76.88
2022-10-13T19:50:33.784Z,76.84
2022-10-13T19:53:00.293Z,76.26
2022-10-13T19:55:26.776Z,76.70
2022-10-13T19:57:53.212Z,76.93
2022-10-13T20:00:19.802Z,77.09
2022-10-13T20:02:46.326Z,76.63
2022-10-13T20:05:12.814Z,77.44
2022-10-13T20:07:39.285Z,76.53
2022-10-13T20:10:06.331Z,76.94
2022-10-13T20:12:32.854Z,76.82
2022-10-13T20:14:59.313Z,76.91
2022-10-13T20:17:25.833Z,76.54
2022-10-13T20:19:52.326Z,77.08
2022-10-13T20:22:18.805Z,77.35
2022-10-13T20:24:45.375Z,77.28
2022-10-13T20:27:12.118Z,77.00
2022-10-13T20:29:38.602Z,77.21
2022-10-13T20:32:05.173Z,76.61
2022-10-13T20:34:31.616Z,75.35
2022-10-13T20:36:58.078Z,76.02
2022-10-13T20:39:24.577Z,75.74
2022-10-13T20:41:51.444Z,74.82
2022-10-13T20:44:17.906Z,75.25
2022-10-13T20:46:44.374Z,74.88
2022-10-13T20:49:12.615Z,74.57
2022-10-13T20:51:40.982Z,74.99
2022-10-13T20:54:07.515Z,74.64
2022-10-13T20:56:34.043Z,75.83
2022-10-13T20:59:05.563Z,74.93
2022-10-13T21:01:32.591Z,75.08
2022-10-13T21:03:59.170Z,74.93
2022-10-13T21:06:25.837Z,74.57
2022-10-13T21:08:52.656Z,75.52
2022-10-13T21:11:20.647Z,75.25
2022-10-13T21:13:47.369Z,75.78
2022-10-13T21:16:18.966Z,76.08
2022-10-13T21:18:46.858Z,75.39
2022-10-13T21:21:13.714Z,75.75
2022-10-13T21:23:40.148Z,75.61
2022-10-13T21:26:08.377Z,76.70
2022-10-13T21:28:37.763Z,77.37
2022-10-13T21:31:09.959Z,76.86
2022-10-13T21:33:38.334Z,77.60
2022-10-13T21:36:14.087Z,78.07
2022-10-13T21:38:41.331Z,77.27
2022-10-13T21:41:09.710Z,77.30
2022-10-13T21:43:36.218Z,76.33
2022-10-13T21:46:27.139Z,76.36
2022-10-13T21:49:04.696Z,75.95
2022-10-13T21:51:35.063Z,76.04
2022-10-13T21:54:03.880Z,75.67
2022-10-13T21:56:31.161Z,75.94
2022-10-13T21:58:58.262Z,75.93
2022-10-13T22:01:24.763Z,75.72
2022-10-13T22:03:56.287Z,75.93
2022-10-13T22:06:22.900Z,76.39
2022-10-13T22:08:50.919Z,76.83
2022-10-13T22:11:18.736Z,77.04
2022-10-13T22:13:45.322Z,76.63
2022-10-13T22:16:36.225Z,76.92
2022-10-13T22:19:03.406Z,76.73
2022-10-13T22:21:32.284Z,76.53
2022-10-13T22:24:01.080Z,76.86
2022-10-13T22:26:29.966Z,76.86
2022-10-13T22:28:58.032Z,77.03
2022-10-13T22:31:25.194Z,77.86
2022-10-13T22:33:51.834Z,77.65
2022-10-13T22:36:20.240Z,77.44
2022-10-13T22:38:48.307Z,77.76
2022-10-13T22:41:16.030Z,77.95
2022-10-13T22:43:43.177Z,77.53
2022-10-13T22:46:10.568Z,77.33
2022-10-13T22:48:40.515Z,77.25
2022-10-13T22:51:08.011Z,77.19
2022-10-13T22:53:34.705Z,77.11
2022-10-13T22:56:05.494Z,76.93
2022-10-13T22:58:32.084Z,77.55
2022-10-13T23:01:05.230Z,77.32
2022-10-13T23:03:31.726Z,77.39
2022-10-13T23:05:58.328Z,78.08
2022-10-13T23:08:25.136Z,78.59
2022-10-13T23:10:51.969Z,78.55
2022-10-13T23:13:18.668Z,78.42
2022-10-13T23:15:45.199Z,78.78
2022-10-13T23:18:11.647Z,78.41
2022-10-13T23:20:41.741Z,78.60
2022-10-13T23:23:09.113Z,78.22
2022-10-13T23:25:36.782Z,76.93
2022-10-13T23:28:03.602Z,76.37
2022-10-13T23:30:32.478Z,76.35
2022-10-13T23:32:59.323Z,76.93
2022-10-13T23:35:25.980Z,77.06
2022-10-13T23:37:52.488Z,76.48
2022-10-13T23:40:19.165Z,76.47
2022-10-13T23:42:45.838Z,76.19
2022-10-13T23:45:12.453Z,76.03
2022-10-13T23:47:38.917Z,75.18
2022-10-13T23:50:06.372Z,75.43
2022-10-13T23:52:32.906Z,75.66
2022-10-13T23:54:59.825Z,75.23
2022-10-13T23:57:26.320Z,75.84
2022-10-13T23:59:52.811Z,75.83
